• Join FlightAware (Why Join?)
  • Login
  • US Flag 
07:02AM EST


 

Airport Tracker/Info


-or-


 

Live Flight TrackerFlight Track Log ✈ DAL110 ✈ 09-Jul-2013 ✈ KATL - KLAX

Flight Track Log - Related Links

Times and Time Zones

All times are in EDT time to prevent confusion due to time zone crossing. See the DAL110 flight status page for this flight to view local times or setup timezone preferences in your user account.

Time Position Orientation Groundspeed Altitude Reporting Facility
EDT Latitude Longitude Course Direction KTS MPH feet Rate Location/Type
08:54AM 33.6500 -84.4667 252° West 183 211 2,500  Level Atlanta TRACON
08:55AM 33.6667 -84.5333 287° West 246 283 4,000 2,340 Climbing Atlanta TRACON
08:56AM 33.6833 -84.6167 284° West 265 305 7,000 2,760 Climbing Atlanta TRACON
08:57AM 33.8001 -84.4079 270° West  Level FlightAware Approximate
08:57AM 33.6833 -84.7000 270° West 280 322 9,600  Level Atlanta TRACON
08:58AM 33.8000 -84.5603 270° West  Level FlightAware Approximate
08:59AM 33.7749 -84.7078 252° West  Level FlightAware Approximate
08:59AM 33.6825 -84.9250 270° West 329 379 12,200  Level Atlanta Center
09:00AM 33.7350 -84.8524 252° West  Level FlightAware Approximate
09:00AM 33.6692 -85.0522 263° West 373 429 14,500  Level Atlanta Center
09:01AM 33.6533 -85.1817 262° West 386 444 16,600 1,800 Climbing Atlanta Center
09:02AM 33.6500 -85.3164 268° West 401 461 18,200 1,620 Climbing Atlanta Center
09:03AM 33.6547 -85.4564 272° West 419 482 19,900 1,500 Climbing Atlanta Center
09:04AM 33.6550 -85.5986 270° West 424 488 21,300 1,260 Climbing Atlanta Center
09:05AM 33.6575 -85.7333 271° West 432 497 22,500 1,260 Climbing Atlanta Center
09:06AM 33.6594 -85.8831 271° West 448 516 23,900 1,380 Climbing Atlanta Center
09:07AM 33.6653 -86.0381 273° West 461 531 25,300 1,320 Climbing Atlanta Center
09:08AM 33.6625 -86.2078 269° West 466 536 26,600 1,200 Climbing Atlanta Center
09:09AM 33.6658 -86.3650 272° West 466 536 27,700 1,020 Climbing Atlanta Center
09:10AM 33.6689 -86.5272 271° West 479 551 28,700 1,320 Climbing Atlanta Center
09:11AM 33.6697 -86.6947 270° West 489 563 30,400 1,620 Climbing Atlanta Center
09:12AM 33.6725 -86.8494 271° West 490 564 32,000 1,140 Climbing Atlanta Center
09:14AM 33.6561 -87.1728 267° West 469 540 34,000 900 Climbing Memphis Center
09:15AM 33.6494 -87.3328 267° West 469 540 34,900 720 Climbing Memphis Center
09:16AM 33.6469 -87.4925 269° West 479 551 35,500 540 Climbing Memphis Center
09:17AM 33.6361 -87.6528 265° West 479 551 36,000 240 Climbing Memphis Center
09:18AM 33.6269 -87.8100 266° West 479 551 36,000  Level Memphis Center
09:19AM 33.6153 -87.9650 265° West 479 551 36,000  Level Memphis Center
09:20AM 33.6058 -88.1225 266° West 479 551 36,000  Level Memphis Center
09:21AM 33.6003 -88.2847 268° West 484 557 36,000  Level Memphis Center
09:22AM 33.5903 -88.4394 266° West 484 557 36,000  Level Memphis Center
09:23AM 33.5800 -88.5969 266° West 479 551 36,000  Level Memphis Center
09:24AM 33.5694 -88.7392 265° West 479 551 36,000  Level Memphis Center
09:25AM 33.5608 -88.8989 266° West 479 551 36,000  Level Memphis Center
09:26AM 33.5500 -89.0561 265° West 479 551 36,000  Level Memphis Center
09:27AM 33.5414 -89.2158 266° West 479 551 36,000  Level Memphis Center
09:28AM 33.5300 -89.3753 265° West 479 551 36,000  Level Memphis Center
09:29AM 33.5208 -89.5325 266° West 479 551 36,000  Level Memphis Center
09:30AM 33.5072 -89.6919 264° West 479 551 36,000  Level Memphis Center
09:31AM 33.4956 -89.8514 265° West 479 551 36,000  Level Memphis Center
09:32AM 33.4833 -90.0086 265° West 479 551 36,000  Level Memphis Center
09:33AM 33.4733 -90.1631 266° West 479 551 36,000  Level Memphis Center
09:34AM 33.4528 -90.3372 262° West 485 558 36,000  Level Memphis Center
09:35AM 33.4256 -90.4942 258° West 480 552 36,000  Level Memphis Center
09:36AM 33.3961 -90.6458 257° West 480 552 36,000  Level Memphis Center
09:37AM 33.3664 -90.8025 257° West 485 558 36,000  Level Memphis Center
09:38AM 33.3386 -90.9564 258° West 485 558 36,000  Level Memphis Center
09:39AM 33.3083 -91.1153 257° West 485 558 36,000  Level Memphis Center
09:40AM 33.2803 -91.2667 258° West 485 558 36,000  Level Memphis Center
09:42AM 33.2331 -91.5528 259° West 492 566 36,000  Level Fort Worth Center
09:43AM 33.2028 -91.7064 257° West 484 557 36,000  Level Fort Worth Center
09:44AM 33.1719 -91.8597 257° West 484 557 36,000  Level Fort Worth Center
09:45AM 33.1411 -92.0153 257° West 484 557 36,000  Level Fort Worth Center
09:46AM 33.1081 -92.1711 256° West 478 550 36,000  Level Fort Worth Center
09:47AM 33.0789 -92.3239 257° West 478 550 36,000  Level Fort Worth Center
09:48AM 33.0561 -92.4814 260° West 478 550 36,000  Level Fort Worth Center
09:49AM 33.0456 -92.6431 266° West 478 550 36,000  Level Fort Worth Center
09:50AM 33.0389 -92.8019 267° West 483 556 36,000  Level Fort Worth Center
09:51AM 33.0300 -92.9608 266° West 483 556 36,000  Level Fort Worth Center
09:52AM 33.0231 -93.1175 267° West 483 556 36,000  Level Fort Worth Center
09:53AM 33.0139 -93.2764 266° West 483 556 36,000  Level Fort Worth Center
09:54AM 33.0042 -93.4353 266° West 483 556 36,000  Level Fort Worth Center
09:55AM 32.9944 -93.5917 266° West 483 556 36,000  Level Fort Worth Center
09:56AM 32.9847 -93.7556 266° West 483 556 36,000  Level Fort Worth Center
09:57AM 32.9742 -93.8972 265° West 483 556 36,000  Level Fort Worth Center
09:58AM 32.9661 -94.0558 267° West 483 556 36,000  Level Fort Worth Center
09:59AM 32.9578 -94.2147 266° West 483 556 36,000  Level Fort Worth Center
10:00AM 32.9489 -94.3711 266° West 483 556 36,000  Level Fort Worth Center
10:01AM 32.9381 -94.5297 265° West 483 556 36,000  Level Fort Worth Center
10:02AM 32.9269 -94.6886 265° West 483 556 36,000  Level Fort Worth Center
10:03AM 32.9156 -94.8422 265° West 478 550 36,000  Level Fort Worth Center
10:04AM 32.9064 -95.0033 266° West 483 556 36,000  Level Fort Worth Center
10:05AM 32.8925 -95.1619 264° West 483 556 36,000  Level Fort Worth Center
10:06AM 32.8850 -95.3331 267° West 483 556 36,000  Level Fort Worth Center
10:07AM 32.8708 -95.4917 264° West 483 556 36,000  Level Fort Worth Center
10:08AM 32.8628 -95.6475 267° West 483 556 36,000  Level Fort Worth Center
10:09AM 32.8503 -95.8086 265° West 483 556 36,000  Level Fort Worth Center
10:10AM 32.8397 -95.9669 266° West 483 556 36,000  Level Fort Worth Center
10:11AM 32.8267 -96.1206 264° West 483 556 36,000  Level Fort Worth Center
10:12AM 32.8136 -96.2764 264° West 483 556 36,000  Level Fort Worth Center
10:13AM 32.8025 -96.4297 265° West 483 556 36,000  Level Fort Worth Center
10:14AM 32.7911 -96.5856 265° West 483 556 36,000  Level Fort Worth Center
10:15AM 32.7772 -96.7389 264° West 477 549 36,000  Level Fort Worth Center
10:16AM 32.7656 -96.8922 265° West 477 549 36,000  Level Fort Worth Center
10:17AM 32.7494 -97.0453 263° West 477 549 36,000  Level Fort Worth Center
10:18AM 32.7331 -97.2036 263° West 482 555 36,000  Level Fort Worth Center
10:19AM 32.7228 -97.3442 265° West 482 555 36,000  Level Fort Worth Center
10:20AM 32.7144 -97.4997 266° West 482 555 36,000  Level Fort Worth Center
10:21AM 32.7078 -97.6553 267° West 477 549 36,000  Level Fort Worth Center
10:22AM 32.7011 -97.8083 267° West 477 549 36,000  Level Fort Worth Center
10:23AM 32.6903 -97.9639 265° West 477 549 36,000  Level Fort Worth Center
10:24AM 32.6853 -98.1169 268° West 477 549 36,000  Level Fort Worth Center
10:25AM 32.6758 -98.2722 266° West 477 549 36,000  Level Fort Worth Center
10:26AM 32.6664 -98.4278 266° West 477 549 36,000  Level Fort Worth Center
10:27AM 32.6567 -98.5756 266° West 472 543 36,000  Level Fort Worth Center
10:28AM 32.6469 -98.7286 266° West 472 543 36,000  Level Fort Worth Center
10:29AM 32.6369 -98.8836 266° West 472 543 36,000  Level Fort Worth Center
10:30AM 32.6264 -99.0414 266° West 472 543 36,000  Level Fort Worth Center
10:31AM 32.6181 -99.1992 266° West 477 549 36,000  Level Fort Worth Center
10:32AM 32.6075 -99.3542 265° West 477 549 36,000  Level Fort Worth Center
10:33AM 32.5944 -99.5094 264° West 477 549 36,000  Level Fort Worth Center
10:34AM 32.5814 -99.6644 264° West 477 549 36,000  Level Fort Worth Center
10:35AM 32.5681 -99.8217 264° West 477 549 36,000  Level Fort Worth Center
10:36AM 32.5581 -100.0014 266° West 488 562 36,000  Level Fort Worth Center
10:37AM 32.5486 -100.1589 266° West 488 562 36,000  Level Fort Worth Center
10:38AM 32.5389 -100.3139 266° West 483 556 36,000  Level Fort Worth Center
10:39AM 32.5267 -100.4711 265° West 478 550 36,000  Level Fort Worth Center
10:40AM 32.5144 -100.6283 265° West 478 550 36,000  Level Fort Worth Center
10:41AM 32.5039 -100.7881 266° West 478 550 36,000  Level Fort Worth Center
10:42AM 32.4894 -100.9378 264° West 478 550 36,000  Level Fort Worth Center
10:43AM 32.4764 -101.0997 265° West 478 550 36,000  Level Fort Worth Center
10:44AM 32.4636 -101.2544 264° West 478 550 36,000  Level Fort Worth Center
10:45AM 32.4525 -101.4089 265° West 478 550 36,000  Level Fort Worth Center
10:46AM 32.4389 -101.5633 264° West 478 550 36,000  Level Fort Worth Center
10:47AM 32.4253 -101.7203 264° West 478 550 36,000  Level Fort Worth Center
10:48AM 32.4117 -101.8722 264° West 478 550 36,000  Level Fort Worth Center
10:49AM 32.3978 -102.0289 264° West 478 550 36,000  Level Fort Worth Center
10:50AM 32.3836 -102.1856 264° West 478 550 36,000  Level Fort Worth Center
10:51AM 32.3669 -102.3422 263° West 478 550 36,000  Level Fort Worth Center
10:52AM 32.3558 -102.4694 264° West 484 557 36,000  Level Fort Worth Center
10:53AM 32.3422 -102.6431 265° West 484 557 36,000  Level Fort Worth Center
10:54AM 32.3294 -102.7972 264° West 479 551 36,000  Level Fort Worth Center
10:55AM 32.3144 -102.9536 264° West 479 551 36,000  Level Fort Worth Center
10:56AM 32.2992 -103.1100 263° West 479 551 36,000  Level Fort Worth Center
10:57AM 32.2903 -103.1928 263° West 478 550 36,000  Level Albuquerque Center
10:58AM 32.2744 -103.3486 263° West 480 552 36,000  Level Albuquerque Center
10:59AM 32.2583 -103.5056 263° West 480 552 36,000  Level Albuquerque Center
11:00AM 32.2428 -103.6608 263° West 479 551 36,000  Level Albuquerque Center
11:01AM 32.2272 -103.8494 264° West 481 554 36,000  Level Albuquerque Center
11:02AM 32.2100 -104.0050 263° West 480 552 36,000  Level Albuquerque Center
11:03AM 32.1953 -104.1442 263° West 476 548 36,000  Level Albuquerque Center
11:04AM 32.1753 -104.3297 263° West 476 548 36,000  Level Albuquerque Center
11:05AM 32.1589 -104.4850 263° West 478 550 36,000  Level Albuquerque Center
11:06AM 32.1419 -104.6406 263° West 479 551 36,000  Level Albuquerque Center
11:07AM 32.1247 -104.7947 263° West 479 551 36,000  Level Albuquerque Center
11:08AM 32.1072 -104.9503 262° West 481 554 36,000  Level Albuquerque Center
11:09AM 32.0903 -105.1072 263° West 483 556 36,000  Level Albuquerque Center
11:10AM 32.0675 -105.2950 262° West 485 558 36,000  Level Albuquerque Center
11:11AM 32.0500 -105.4486 262° West 481 554 36,000  Level Albuquerque Center
11:12AM 32.0314 -105.6044 262° West 483 556 36,000  Level Albuquerque Center
11:13AM 32.0133 -105.7597 262° West 483 556 36,000  Level Albuquerque Center
11:14AM 31.9950 -105.9156 262° West 483 556 36,000  Level Albuquerque Center
11:15AM 31.9769 -106.0747 262° West 483 556 36,000  Level Albuquerque Center
11:16AM 31.9564 -106.2625 263° West 484 557 36,000  Level Albuquerque Center
11:17AM 31.9697 -106.4206 276° West 487 560 36,000  Level Albuquerque Center
11:18AM 31.9886 -106.5764 278° West 482 555 36,000  Level Albuquerque Center
11:19AM 32.0067 -106.7311 278° West 477 549 36,000  Level Albuquerque Center
11:20AM 32.0239 -106.8861 278° West 475 547 36,000  Level Albuquerque Center
11:22AM 32.0408 -107.0408 277° West 475 547 36,000  Level Albuquerque Center
11:23AM 32.0581 -107.1956 278° West 473 544 36,000  Level Albuquerque Center
11:24AM 32.0778 -107.3806 277° West 471 542 36,000  Level Albuquerque Center
11:25AM 32.0942 -107.5356 277° West 472 543 36,000  Level Albuquerque Center
11:26AM 32.1106 -107.6889 277° West 472 543 36,000  Level Albuquerque Center
11:27AM 32.1269 -107.8442 277° West 474 545 36,000  Level Albuquerque Center
11:28AM 32.1431 -107.9967 277° West 470 541 36,000  Level Albuquerque Center
11:29AM 32.1589 -108.1508 277° West 472 543 36,000  Level Albuquerque Center
11:30AM 32.1756 -108.3056 277° West 474 545 36,000  Level Albuquerque Center
11:31AM 32.1917 -108.4900 276° West 472 543 36,000  Level Albuquerque Center
11:32AM 32.2069 -108.6439 277° West 471 542 36,000  Level Albuquerque Center
11:33AM 32.2250 -108.7981 278° West 474 545 36,000  Level Albuquerque Center
11:34AM 32.2428 -108.9544 278° West 481 554 36,000  Level Albuquerque Center
11:35AM 32.2561 -109.1086 276° West 475 547 36,000  Level Albuquerque Center
11:36AM 32.2728 -109.2633 277° West 474 545 36,000  Level Albuquerque Center
11:37AM 32.3303 -109.4364 292° West 471 542 36,000  Level Albuquerque Center
11:38AM 32.3811 -109.5792 293° West 471 542 36,000  Level Albuquerque Center
11:39AM 32.4322 -109.7206 293° West 469 540 36,000  Level Albuquerque Center
11:40AM 32.4858 -109.8761 292° West 466 536 36,000  Level Albuquerque Center
11:41AM 32.5339 -110.0172 292° West 463 533 36,000  Level Albuquerque Center
11:42AM 32.5814 -110.1572 292° West 461 531 36,000  Level Albuquerque Center
11:43AM 32.6300 -110.2967 293° West 458 527 36,000  Level Albuquerque Center
11:44AM 32.6761 -110.4353 292° West 454 522 36,000  Level Albuquerque Center
11:45AM 32.7233 -110.5764 292° West 457 526 36,000  Level Albuquerque Center
11:46AM 32.7800 -110.7447 292° West 458 527 36,000  Level Albuquerque Center
11:47AM 32.8275 -110.8856 292° West 459 528 36,000  Level Albuquerque Center
11:48AM 32.8742 -111.0269 291° West 460 529 36,000  Level Albuquerque Center
11:49AM 32.9214 -111.1683 292° West 459 528 36,000  Level Albuquerque Center
11:50AM 32.9689 -111.3089 292° West 458 527 36,000  Level Albuquerque Center
11:52AM 33.0147 -111.4525 291° West 463 533 36,000  Level Albuquerque Center
11:53AM 33.0706 -111.6247 291° West 463 533 36,000  Level Albuquerque Center
11:54AM 33.1175 -111.7675 291° West 462 532 36,000  Level Albuquerque Center
11:55AM 33.1622 -111.9111 290° West 461 531 36,000  Level Albuquerque Center
11:56AM 33.2103 -112.0567 292° West 467 537 36,000  Level Albuquerque Center
11:57AM 33.2544 -112.1992 290° West 451 519 36,000  Level Albuquerque Center
11:58AM 33.3014 -112.3447 291° West 470 541 36,000  Level Albuquerque Center
11:59AM 33.3472 -112.4889 291° West 464 534 36,000  Level Albuquerque Center
12:00PM 33.4036 -112.6619 291° West 462 532 36,000  Level Albuquerque Center
12:01PM 33.4483 -112.8056 291° West 462 532 36,000  Level Albuquerque Center
12:02PM 33.4961 -112.9489 292° West 464 534 36,000  Level Albuquerque Center
12:03PM 33.5486 -113.0903 294° West 466 536 36,000  Level Albuquerque Center
12:04PM 33.5997 -113.2314 294° West 466 536 36,000  Level Albuquerque Center
12:05PM 33.6500 -113.3764 293° West 465 535 36,000  Level Albuquerque Center
12:06PM 33.7111 -113.5478 293° West 467 537 36,000  Level Albuquerque Center
12:07PM 33.7614 -113.6925 293° West 468 539 36,000  Level Albuquerque Center
12:08PM 33.8117 -113.8364 293° West 468 539 36,000  Level Albuquerque Center
12:09PM 33.8544 -113.9831 289° West 465 535 36,000  Level Albuquerque Center
12:10PM 33.8747 -114.1339 279° West 459 528 36,000  Level Albuquerque Center
12:11PM 33.8947 -114.2556 281° West 459 528 36,000  Level Los Angeles Center
12:12PM 33.9172 -114.4047 280° West 457 526 36,000  Level Los Angeles Center
12:13PM 33.9439 -114.5842 280° West 456 525 36,000  Level Los Angeles Center
12:14PM 33.9653 -114.7314 280° West 451 519 36,000  Level Los Angeles Center
12:15PM 33.9878 -114.8808 280° West 454 522 36,000  Level Los Angeles Center
12:16PM 34.0139 -115.0569 280° West 448 516 36,000  Level Los Angeles Center
12:17PM 34.0342 -115.2058 279° West 452 520 36,000  Level Los Angeles Center
12:18PM 34.0592 -115.3836 280° West 452 520 36,000  Level Los Angeles Center
12:19PM 34.0814 -115.5353 280° West 460 529 36,000  Level Los Angeles Center
12:20PM 34.1019 -115.6881 279° West 464 534 36,000  Level Los Angeles Center
12:21PM 34.1025 -115.8411 270° West 463 533 36,000 -360 Level Los Angeles Center
12:23PM 34.0797 -115.9867 259° West 450 518 35,300 -1,260 Descending Los Angeles Center
12:24PM 34.0525 -116.1658 260° West 449 517 33,500 -2,520 Descending Los Angeles Center
12:25PM 34.0294 -116.3214 260° West 460 529 30,100 -3,360 Descending Los Angeles Center
12:26PM 34.0067 -116.4803 260° West 473 544 26,600 -3,000 Descending Los Angeles Center
12:27PM 33.9931 -116.6394 264° West 479 551 23,900 -2,460 Descending Los Angeles Center
12:28PM 33.9803 -116.7911 264° West 467 537 21,500 -2,220 Descending Los Angeles Center
12:29PM 33.9681 -116.9347 264° West 449 517 19,400 -2,280 Descending Los Angeles Center
12:30PM 33.9667 -117.0667 269° West 368 423 17,200 -1,320 Descending Southern California TRACON
12:31PM 33.9500 -117.1667 259° West 334 384 17,000 -660 Descending Southern California TRACON
12:32PM 33.9333 -117.2833 260° West 313 360 15,900 -1,260 Descending Southern California TRACON
12:33PM 33.9333 -117.3833 270° West 300 345 14,500 -1,440 Descending Southern California TRACON
12:34PM 33.9667 -117.4667 296° West 300 345 13,100 -1,440 Descending Southern California TRACON
12:35PM 34.0000 -117.5667 292° West 291 335 11,700 -1,440 Descending Southern California TRACON
12:36PM 34.0167 -117.6500 284° West 299 344 10,300 -1,200 Descending Southern California TRACON
12:37PM 34.0000 -117.7500 259° West 257 296 9,300 -1,140 Descending Southern California TRACON
12:38PM 34.0000 -117.8333 270° West 268 308 8,100 -1,140 Descending Southern California TRACON
12:39PM 33.9833 -117.9167 256° West 246 283 7,100 -1,080 Descending Southern California TRACON
12:40PM 33.9833 -118.0000 270° West 239 275 6,000 -1,020 Descending Southern California TRACON
12:41PM 33.9667 -118.0667 253° West 235 270 5,100 -1,080 Descending Southern California TRACON
12:42PM 33.9667 -118.1500 270° West 221 254 3,900 -1,200 Descending Southern California TRACON
12:42PM 33.9567 -118.1886 253° West 218 251 3,300 -1,200 Descending Los Angeles Center
12:43PM 33.9506 -118.2617 264° West 205 236 2,000 -1,080 Descending Los Angeles Center
12:44PM 33.9447 -118.3206 263° West 184 212 1,100 -780 Descending Los Angeles Center
12:45PM 33.9394 -118.3700 263° West 141 162 400 -540 Descending Los Angeles Center
12:46PM 33.9364 -118.4158 265° West 139 160 100 -300 Descending Los Angeles Center
12:48PM 33.9333 -118.4000 270° West  Level FlightAware Approximate